createdAt,value
2017-05-02T00:02:13.072Z,12.40
2017-05-02T00:04:41.957Z,12.50
2017-05-02T00:07:10.844Z,12.50
2017-05-02T00:09:39.861Z,12.50
2017-05-02T00:12:08.753Z,12.50
2017-05-02T00:14:37.737Z,12.40
2017-05-02T00:17:06.673Z,12.40
2017-05-02T00:19:36.305Z,12.30
2017-05-02T00:22:05.201Z,12.30
2017-05-02T00:24:34.265Z,12.30
2017-05-02T00:27:03.901Z,12.30
2017-05-02T00:29:32.784Z,12.30
2017-05-02T00:32:02.016Z,12.30
2017-05-02T00:34:30.901Z,12.20
2017-05-02T00:36:59.797Z,12.20
2017-05-02T00:39:28.729Z,12.10
2017-05-02T00:41:58.362Z,12.10
2017-05-02T00:44:27.278Z,12.20
2017-05-02T00:46:56.476Z,12.20
2017-05-02T00:49:25.370Z,12.20
2017-05-02T00:51:54.256Z,12.20
2017-05-02T00:54:23.270Z,12.20
2017-05-02T00:56:52.153Z,12.10
2017-05-02T00:59:21.046Z,12.20
2017-05-02T01:01:49.957Z,12.20
2017-05-02T01:04:18.841Z,12.20
2017-05-02T01:06:47.772Z,12.20
2017-05-02T01:09:17.406Z,12.10
2017-05-02T01:11:46.297Z,12.20
2017-05-02T01:14:15.288Z,12.20
2017-05-02T01:16:44.181Z,12.20
2017-05-02T01:19:13.138Z,12.10
2017-05-02T01:21:42.898Z,12.10
2017-05-02T01:24:11.802Z,12.10
2017-05-02T01:26:40.693Z,12.00
2017-05-02T01:29:09.978Z,12.00
2017-05-02T01:31:38.883Z,12.00
2017-05-02T01:34:07.778Z,12.00
2017-05-02T01:36:36.704Z,11.90
2017-05-02T01:39:06.329Z,11.80
2017-05-02T01:41:35.218Z,11.70
2017-05-02T01:44:04.229Z,11.70
2017-05-02T01:46:33.122Z,11.70
2017-05-02T01:49:02.012Z,11.70
2017-05-02T01:51:30.930Z,11.50
2017-05-02T01:53:59.821Z,11.40
2017-05-02T01:56:28.717Z,11.30
2017-05-02T01:58:57.652Z,11.30
2017-05-02T02:01:27.277Z,11.20
2017-05-02T02:03:56.164Z,11.30
2017-05-02T02:06:25.384Z,11.20
2017-05-02T02:08:54.273Z,11.20
2017-05-02T02:11:23.166Z,11.10
2017-05-02T02:13:52.097Z,11.00
2017-05-02T02:16:21.742Z,10.90
2017-05-02T02:18:50.625Z,10.90
2017-05-02T02:21:19.562Z,10.80
2017-05-02T02:23:48.445Z,10.80
2017-05-02T02:26:17.331Z,10.70
2017-05-02T02:28:46.350Z,10.70
2017-05-02T02:31:15.237Z,10.60
2017-05-02T02:33:44.117Z,10.50
2017-05-02T02:36:13.036Z,10.40
2017-05-02T02:38:42.680Z,10.40
2017-05-02T02:41:11.569Z,10.50
2017-05-02T02:43:40.502Z,10.40
2017-05-02T02:46:09.402Z,10.40
2017-05-02T02:48:38.289Z,10.30
2017-05-02T02:51:07.212Z,10.40
2017-05-02T02:53:36.845Z,10.30
2017-05-02T02:56:05.729Z,10.40
2017-05-02T02:58:34.963Z,10.40
2017-05-02T03:01:03.844Z,10.40
2017-05-02T03:03:32.734Z,10.40
2017-05-02T03:06:01.933Z,10.40
2017-05-02T03:08:30.821Z,10.40
2017-05-02T03:10:59.709Z,10.50
2017-05-02T03:13:28.692Z,10.50
2017-05-02T03:15:57.574Z,10.70
2017-05-02T03:18:26.474Z,10.70
2017-05-02T03:20:55.490Z,10.70
2017-05-02T03:23:24.379Z,10.60
2017-05-02T03:25:53.377Z,10.60
2017-05-02T03:28:22.392Z,10.60
2017-05-02T03:30:51.282Z,10.60
2017-05-02T03:33:20.170Z,10.60
2017-05-02T03:35:49.102Z,10.50
2017-05-02T03:38:17.998Z,10.60
2017-05-02T03:40:46.885Z,10.60
2017-05-02T03:43:16.117Z,10.60
2017-05-02T03:45:45.009Z,10.60
2017-05-02T03:48:13.899Z,10.60
2017-05-02T03:50:43.041Z,10.60
2017-05-02T03:53:12.697Z,10.50
2017-05-02T03:55:41.602Z,10.40
2017-05-02T03:58:10.533Z,10.30
2017-05-02T04:00:40.179Z,10.10
2017-05-02T04:03:09.068Z,10.10
2017-05-02T04:05:38.179Z,10.00
2017-05-02T04:08:07.069Z,10.10
2017-05-02T04:10:35.952Z,10.00
2017-05-02T04:13:04.871Z,9.90
2017-05-02T04:15:33.756Z,9.80
2017-05-02T04:18:02.640Z,9.90
2017-05-02T04:20:31.568Z,9.90
2017-05-02T04:23:01.193Z,9.90
2017-05-02T04:25:30.818Z,9.90
2017-05-02T04:28:00.168Z,10.00
2017-05-02T04:30:29.065Z,10.00
2017-05-02T04:32:57.960Z,9.90
2017-05-02T04:35:26.890Z,10.00
2017-05-02T04:37:55.794Z,10.00
2017-05-02T04:40:24.677Z,10.00
2017-05-02T04:42:53.811Z,10.00
2017-05-02T04:45:22.728Z,10.10
2017-05-02T04:47:52.374Z,10.20
2017-05-02T04:50:21.600Z,10.30
2017-05-02T04:52:50.493Z,10.50
2017-05-02T04:55:19.379Z,10.50
2017-05-02T04:57:48.297Z,10.50
2017-05-02T05:00:17.181Z,10.60
2017-05-02T05:02:46.352Z,10.70
2017-05-02T05:05:15.242Z,10.70
2017-05-02T05:07:44.134Z,10.70
2017-05-02T05:10:13.053Z,10.90
2017-05-02T05:12:41.940Z,10.90
2017-05-02T05:15:10.829Z,10.90
2017-05-02T05:17:39.744Z,11.00
2017-05-02T05:20:09.370Z,11.20
2017-05-02T05:22:38.266Z,11.20
2017-05-02T05:25:07.193Z,11.20
2017-05-02T05:27:36.077Z,11.20
2017-05-02T05:30:04.965Z,11.30
2017-05-02T05:32:33.953Z,11.40
2017-05-02T05:35:02.832Z,11.50
2017-05-02T05:37:31.722Z,11.50
2017-05-02T05:40:00.649Z,11.60
2017-05-02T05:42:29.536Z,11.60
2017-05-02T05:44:58.477Z,11.70
2017-05-02T05:47:28.512Z,11.70
2017-05-02T05:49:57.402Z,11.90
2017-05-02T05:52:26.285Z,12.00
2017-05-02T05:54:55.206Z,12.00
2017-05-02T05:57:24.097Z,12.00
2017-05-02T05:59:52.985Z,12.10
2017-05-02T06:02:22.120Z,12.20
2017-05-02T06:04:51.012Z,12.20
2017-05-02T06:07:19.889Z,12.30
2017-05-02T06:09:49.053Z,12.30
2017-05-02T06:12:17.937Z,12.30
2017-05-02T06:14:46.837Z,12.30
2017-05-02T06:17:15.846Z,12.30
2017-05-02T06:19:44.828Z,12.40
2017-05-02T06:22:13.713Z,12.40
2017-05-02T06:24:42.721Z,12.40
2017-05-02T06:27:11.608Z,12.50
2017-05-02T06:29:40.497Z,12.60
2017-05-02T06:32:09.694Z,12.60
2017-05-02T06:34:38.580Z,12.60
2017-05-02T06:37:07.473Z,12.70
2017-05-02T06:39:36.409Z,12.70
2017-05-02T06:42:06.034Z,12.80
2017-05-02T06:44:34.926Z,12.90
2017-05-02T06:47:04.868Z,12.80
2017-05-02T06:49:33.760Z,13.00
2017-05-02T06:52:02.646Z,13.00
2017-05-02T06:54:31.660Z,13.00
2017-05-02T06:57:00.544Z,13.00
2017-05-02T06:59:29.436Z,13.00
2017-05-02T07:01:58.365Z,13.00
2017-05-02T07:04:27.257Z,13.10
2017-05-02T07:06:56.155Z,13.20
2017-05-02T07:09:25.075Z,13.20
2017-05-02T07:11:53.960Z,13.30
2017-05-02T07:14:22.849Z,13.30
2017-05-02T07:16:51.856Z,13.40
2017-05-02T07:19:20.741Z,13.40
2017-05-02T07:21:49.635Z,13.50
2017-05-02T07:24:18.924Z,13.60
2017-05-02T07:26:47.812Z,13.70
2017-05-02T07:29:16.704Z,13.80
2017-05-02T07:31:45.629Z,13.90
2017-05-02T07:34:14.512Z,14.00
2017-05-02T07:36:43.409Z,14.00
2017-05-02T07:39:12.601Z,14.10
2017-05-02T07:41:41.494Z,14.10
2017-05-02T07:44:10.433Z,14.20
2017-05-02T07:46:40.405Z,14.30
2017-05-02T07:49:09.285Z,14.40
2017-05-02T07:51:38.176Z,14.50
2017-05-02T07:54:07.085Z,14.50
2017-05-02T07:56:35.978Z,14.50
2017-05-02T07:59:04.865Z,14.70
2017-05-02T08:01:33.802Z,14.70
2017-05-02T08:04:03.425Z,14.70
2017-05-02T08:06:32.309Z,14.80
2017-05-02T08:09:02.049Z,14.70
2017-05-02T08:11:30.926Z,14.80
2017-05-02T08:13:59.806Z,14.80
2017-05-02T08:16:29.641Z,14.80
2017-05-02T08:18:58.521Z,14.90
2017-05-02T08:21:27.396Z,14.90
2017-05-02T08:23:57.141Z,15.00
2017-05-02T08:26:26.023Z,15.10
2017-05-02T08:28:54.897Z,15.20
2017-05-02T08:31:23.936Z,15.30
2017-05-02T08:33:52.814Z,15.30
2017-05-02T08:36:21.680Z,15.40
2017-05-02T08:38:51.919Z,15.50
2017-05-02T08:41:20.798Z,15.40
2017-05-02T08:43:49.672Z,15.40
2017-05-02T08:46:18.588Z,15.50
2017-05-02T08:48:47.461Z,15.60
2017-05-02T08:51:16.339Z,15.70
2017-05-02T08:53:45.991Z,15.70
2017-05-02T08:56:14.865Z,15.90
2017-05-02T08:58:43.738Z,16.10
2017-05-02T09:01:12.739Z,16.40
2017-05-02T09:03:41.615Z,16.70
2017-05-02T09:06:10.492Z,16.90
2017-05-02T09:08:40.149Z,17.00
2017-05-02T09:11:09.029Z,17.20
2017-05-02T09:13:37.911Z,17.40
2017-05-02T09:16:06.822Z,17.50
2017-05-02T09:18:35.692Z,17.60
2017-05-02T09:21:04.564Z,17.80
2017-05-02T09:23:33.810Z,18.00
2017-05-02T09:26:02.701Z,18.20
2017-05-02T09:28:31.578Z,18.40
2017-05-02T09:31:00.507Z,18.30
2017-05-02T09:33:29.376Z,18.30
2017-05-02T09:35:58.249Z,18.20
2017-05-02T09:38:27.160Z,18.10
2017-05-02T09:40:56.038Z,18.10
2017-05-02T09:43:24.917Z,18.10
2017-05-02T09:45:53.926Z,18.00
2017-05-02T09:48:22.820Z,18.10
2017-05-02T09:50:51.693Z,18.20
2017-05-02T09:53:20.885Z,18.30
2017-05-02T09:55:49.755Z,18.20
2017-05-02T09:58:18.629Z,18.10
2017-05-02T10:00:48.281Z,18.10
2017-05-02T10:03:17.159Z,18.10
2017-05-02T10:05:46.029Z,18.10
2017-05-02T10:08:15.039Z,18.10
2017-05-02T10:10:43.909Z,18.30
2017-05-02T10:13:13.529Z,18.50
2017-05-02T10:15:42.537Z,18.60
2017-05-02T10:18:11.414Z,18.70
2017-05-02T10:20:40.295Z,18.90
2017-05-02T10:23:10.034Z,19.10
2017-05-02T10:25:38.916Z,19.10
2017-05-02T10:28:07.797Z,18.90
2017-05-02T10:30:36.797Z,18.70
2017-05-02T10:33:05.668Z,18.80
2017-05-02T10:35:35.280Z,19.10
2017-05-02T10:38:04.375Z,19.20
2017-05-02T10:40:33.257Z,19.60
2017-05-02T10:43:02.869Z,19.40
2017-05-02T10:45:32.520Z,19.60
2017-05-02T10:48:01.398Z,19.60
2017-05-02T10:50:30.269Z,19.90
2017-05-02T10:52:59.273Z,20.20
2017-05-02T10:55:28.145Z,20.10
2017-05-02T10:57:57.762Z,20.30
2017-05-02T11:00:26.797Z,20.40
2017-05-02T11:02:55.672Z,20.50
2017-05-02T11:05:24.544Z,20.60
2017-05-02T11:07:53.466Z,20.60
2017-05-02T11:10:22.335Z,20.80
2017-05-02T11:12:51.207Z,20.30
2017-05-02T11:15:20.105Z,20.20
2017-05-02T11:17:48.980Z,20.30
2017-05-02T11:20:17.901Z,20.70
2017-05-02T11:22:46.785Z,21.10
2017-05-02T11:25:15.845Z,21.40
2017-05-02T11:27:45.577Z,21.80
2017-05-02T11:30:14.447Z,22.00
2017-05-02T11:32:44.066Z,21.90
2017-05-02T11:35:12.981Z,21.80
2017-05-02T11:37:41.860Z,22.00
2017-05-02T11:40:10.729Z,22.00
2017-05-02T11:42:40.389Z,22.00
2017-05-02T11:45:09.256Z,22.30
2017-05-02T11:47:38.133Z,22.60
2017-05-02T11:50:07.349Z,23.10
2017-05-02T11:52:36.224Z,23.50
2017-05-02T11:55:05.101Z,23.80
2017-05-02T11:57:34.015Z,23.40
2017-05-02T12:00:02.926Z,23.40
2017-05-02T12:02:31.812Z,23.70
2017-05-02T12:05:00.685Z,23.60
2017-05-02T12:07:29.692Z,23.90
2017-05-02T12:09:58.571Z,23.40
2017-05-02T12:12:27.441Z,23.30
2017-05-02T12:14:56.442Z,22.90
2017-05-02T12:17:25.312Z,24.00
2017-05-02T12:19:54.933Z,24.80
2017-05-02T12:22:23.939Z,24.20
2017-05-02T12:24:52.808Z,23.10
2017-05-02T12:27:22.501Z,22.30
2017-05-02T12:29:51.420Z,22.10
2017-05-02T12:32:20.292Z,22.30
2017-05-02T12:34:50.843Z,22.50
2017-05-02T12:37:20.065Z,22.50
2017-05-02T12:39:48.941Z,22.60
2017-05-02T12:42:17.818Z,23.20
2017-05-02T12:44:47.045Z,25.70
2017-05-02T12:47:15.932Z,28.70
2017-05-02T12:49:44.818Z,31.20
2017-05-02T12:52:14.014Z,32.80
2017-05-02T12:57:11.765Z,33.50
2017-05-02T12:59:41.707Z,32.10
2017-05-02T13:02:10.694Z,31.00
2017-05-02T13:04:39.572Z,32.10
2017-05-02T13:07:08.484Z,33.40
2017-05-02T13:09:37.358Z,34.70
2017-05-02T13:12:06.228Z,36.10
2017-05-02T13:14:35.969Z,36.50
2017-05-02T13:17:04.845Z,36.00
2017-05-02T13:19:33.715Z,36.20
2017-05-02T13:22:03.374Z,35.70
2017-05-02T13:24:32.256Z,35.30
2017-05-02T13:27:01.125Z,35.50
2017-05-02T13:29:30.040Z,32.60
2017-05-02T13:31:58.917Z,30.10
2017-05-02T13:34:27.800Z,28.10
2017-05-02T13:36:56.822Z,27.70
2017-05-02T13:39:25.698Z,29.30
2017-05-02T13:41:54.578Z,32.10
2017-05-02T13:44:23.790Z,33.30
2017-05-02T13:46:52.661Z,34.50
2017-05-02T13:49:21.566Z,35.60
2017-05-02T13:51:50.592Z,35.80
2017-05-02T13:54:19.469Z,34.50
2017-05-02T13:56:48.354Z,32.00
2017-05-02T13:59:17.465Z,30.00
2017-05-02T14:01:46.365Z,28.30
2017-05-02T14:04:15.238Z,27.40
2017-05-02T14:06:44.161Z,26.60
2017-05-02T14:09:13.033Z,28.50
2017-05-02T14:11:41.908Z,30.10
2017-05-02T14:14:11.198Z,32.30
2017-05-02T14:16:40.073Z,31.30
2017-05-02T14:19:08.949Z,29.30
2017-05-02T14:21:38.700Z,27.70
2017-05-02T14:24:07.581Z,26.20
2017-05-02T14:26:36.473Z,25.10
2017-05-02T14:29:05.476Z,24.50
2017-05-02T14:31:34.360Z,24.00
2017-05-02T14:34:03.232Z,23.60
2017-05-02T14:36:32.345Z,25.00
2017-05-02T14:39:01.216Z,25.60
2017-05-02T14:41:30.096Z,25.30
2017-05-02T14:43:59.010Z,24.60
2017-05-02T14:46:27.886Z,23.80
2017-05-02T14:48:56.766Z,23.10
2017-05-02T14:51:26.542Z,23.10
2017-05-02T14:53:55.414Z,23.00
2017-05-02T14:56:24.299Z,22.40
2017-05-02T14:58:53.221Z,21.50
2017-05-02T15:01:22.093Z,21.10
2017-05-02T15:03:50.975Z,20.90
2017-05-02T15:06:20.154Z,20.90
2017-05-02T15:08:49.029Z,21.00
2017-05-02T15:11:17.905Z,21.20
2017-05-02T15:13:47.654Z,21.10
2017-05-02T15:16:16.529Z,20.70
2017-05-02T15:18:45.411Z,20.60
2017-05-02T15:21:14.326Z,20.60
2017-05-02T15:23:43.198Z,20.60
2017-05-02T15:26:12.097Z,20.70
2017-05-02T15:28:41.010Z,20.80
2017-05-02T15:31:09.893Z,20.80
2017-05-02T15:33:38.773Z,20.80
2017-05-02T15:36:07.693Z,20.80
2017-05-02T15:38:37.477Z,20.70
2017-05-02T15:41:06.509Z,20.70
2017-05-02T15:43:35.866Z,20.60
2017-05-02T15:46:04.746Z,20.60
2017-05-02T15:48:33.630Z,20.70
2017-05-02T15:51:02.545Z,20.70
2017-05-02T15:53:31.441Z,20.50
2017-05-02T15:56:00.317Z,20.50
2017-05-02T15:58:29.224Z,20.40
2017-05-02T16:00:58.183Z,20.40
2017-05-02T16:03:27.068Z,20.30
2017-05-02T16:05:56.686Z,20.00
2017-05-02T16:08:25.599Z,19.90
2017-05-02T16:10:54.477Z,20.00
2017-05-02T16:13:23.355Z,19.90
2017-05-02T16:15:52.269Z,19.90
2017-05-02T16:18:21.155Z,19.70
2017-05-02T16:20:50.029Z,19.60
2017-05-02T16:23:18.955Z,19.60
2017-05-02T16:25:47.834Z,19.40
2017-05-02T16:28:16.710Z,19.50
2017-05-02T16:30:45.618Z,19.40
2017-05-02T16:33:14.493Z,19.50
2017-05-02T16:35:43.365Z,19.50
2017-05-02T16:38:12.302Z,19.40
2017-05-02T16:40:41.194Z,19.30
2017-05-02T16:43:10.075Z,19.30
2017-05-02T16:45:38.992Z,19.40
2017-05-02T16:48:07.877Z,19.20
2017-05-02T16:50:36.761Z,19.10
2017-05-02T16:53:05.769Z,19.00
2017-05-02T16:55:34.645Z,18.90
2017-05-02T16:58:03.520Z,18.80
2017-05-02T17:00:32.461Z,18.70
2017-05-02T17:03:02.086Z,18.50
2017-05-02T17:05:30.975Z,18.40
2017-05-02T17:08:00.197Z,18.40
2017-05-02T17:10:29.072Z,18.40
2017-05-02T17:12:57.941Z,18.30
2017-05-02T17:15:27.583Z,18.30
2017-05-02T17:17:56.480Z,18.20
2017-05-02T17:20:25.497Z,18.00
2017-05-02T17:22:54.366Z,17.90
2017-05-02T17:25:23.251Z,17.90
2017-05-02T17:27:52.168Z,18.00
2017-05-02T17:30:21.048Z,17.90
2017-05-02T17:32:49.934Z,17.80
2017-05-02T17:35:18.849Z,17.70
2017-05-02T17:37:47.721Z,17.60
2017-05-02T17:40:16.599Z,17.60
2017-05-02T17:42:45.797Z,17.60
2017-05-02T17:45:14.672Z,17.40
2017-05-02T17:47:43.584Z,17.40
2017-05-02T17:50:12.769Z,17.20
2017-05-02T17:52:41.641Z,17.20
2017-05-02T17:55:10.518Z,17.20
2017-05-02T17:57:40.179Z,17.00
2017-05-02T18:00:09.057Z,16.90
2017-05-02T18:02:37.932Z,16.80
2017-05-02T18:05:06.841Z,16.80
2017-05-02T18:07:35.719Z,16.70
2017-05-02T18:10:04.919Z,16.70
2017-05-02T18:12:33.792Z,16.60
2017-05-02T18:15:03.688Z,16.50
2017-05-02T18:17:33.644Z,16.50
2017-05-02T18:20:02.516Z,16.40
2017-05-02T18:22:31.394Z,16.40
2017-05-02T18:25:01.047Z,16.30
2017-05-02T18:27:29.927Z,16.20
2017-05-02T18:29:58.838Z,16.20
2017-05-02T18:32:27.722Z,16.20
2017-05-02T18:34:56.616Z,16.10
2017-05-02T18:37:25.528Z,16.00
2017-05-02T18:39:54.513Z,16.10
2017-05-02T18:42:23.396Z,16.00
2017-05-02T18:44:52.486Z,15.90
2017-05-02T18:47:21.365Z,15.90
2017-05-02T18:49:50.268Z,15.90
2017-05-02T18:52:19.528Z,15.80
2017-05-02T18:54:48.465Z,15.80
2017-05-02T18:57:17.343Z,15.80
2017-05-02T18:59:46.523Z,15.70
2017-05-02T19:02:15.399Z,15.70
2017-05-02T19:04:44.279Z,15.70
2017-05-02T19:07:13.209Z,15.70
2017-05-02T19:09:42.089Z,15.60
2017-05-02T19:12:10.995Z,15.60
2017-05-02T19:14:40.186Z,15.60
2017-05-02T19:17:09.059Z,15.50
2017-05-02T19:19:38.024Z,15.50
2017-05-02T19:22:07.684Z,15.40
2017-05-02T19:24:37.913Z,15.40
2017-05-02T19:27:06.790Z,15.30
2017-05-02T19:29:35.662Z,15.30
2017-05-02T19:32:04.560Z,15.20
2017-05-02T19:34:33.438Z,15.20
2017-05-02T19:37:02.328Z,15.10
2017-05-02T19:39:31.262Z,15.10
2017-05-02T19:42:00.169Z,15.10
2017-05-02T19:44:29.044Z,15.00
2017-05-02T19:46:58.029Z,15.00
2017-05-02T19:49:26.917Z,14.90
2017-05-02T19:51:55.796Z,14.90
2017-05-02T19:54:24.821Z,14.80
2017-05-02T19:56:53.723Z,14.80
2017-05-02T19:59:22.625Z,14.70
2017-05-02T20:01:52.296Z,14.70
2017-05-02T20:04:21.194Z,14.70
2017-05-02T20:06:50.093Z,14.70
2017-05-02T20:09:19.178Z,14.60
2017-05-02T20:11:48.059Z,14.60
2017-05-02T20:14:16.949Z,14.60
2017-05-02T20:16:45.868Z,14.50
2017-05-02T20:19:14.745Z,14.50
2017-05-02T20:21:43.870Z,14.50
2017-05-02T20:24:13.490Z,14.40
2017-05-02T20:26:43.539Z,14.30
2017-05-02T20:29:12.417Z,14.30
2017-05-02T20:31:41.288Z,14.30
2017-05-02T20:34:10.256Z,14.30
2017-05-02T20:36:39.872Z,14.30
2017-05-02T20:39:09.492Z,14.20
2017-05-02T20:41:38.723Z,14.20
2017-05-02T20:44:07.602Z,14.10
2017-05-02T20:46:36.477Z,14.10
2017-05-02T20:49:05.742Z,14.10
2017-05-02T20:51:34.616Z,14.10
2017-05-02T20:54:03.517Z,14.10
2017-05-02T20:56:32.416Z,14.00
2017-05-02T20:59:01.298Z,14.00
2017-05-02T21:01:30.316Z,14.00
2017-05-02T21:03:59.931Z,13.90
2017-05-02T21:06:29.545Z,13.90
2017-05-02T21:08:58.453Z,13.90
2017-05-02T21:11:27.340Z,13.90
2017-05-02T21:13:56.263Z,13.90
2017-05-02T21:16:25.129Z,13.80
2017-05-02T21:18:54.006Z,13.80
2017-05-02T21:21:23.053Z,13.70
2017-05-02T21:23:51.925Z,13.70
2017-05-02T21:26:20.801Z,13.70
2017-05-02T21:28:49.708Z,13.60
2017-05-02T21:31:18.714Z,13.60
2017-05-02T21:33:47.606Z,13.60
2017-05-02T21:36:16.477Z,13.50
2017-05-02T21:38:46.078Z,13.50
2017-05-02T21:41:14.956Z,13.50
2017-05-02T21:43:43.836Z,13.50
2017-05-02T21:46:12.747Z,13.40
2017-05-02T21:48:41.629Z,13.50
2017-05-02T21:51:10.508Z,13.40
2017-05-02T21:53:39.508Z,13.30
2017-05-02T21:56:08.389Z,13.30
2017-05-02T21:58:37.266Z,13.20
2017-05-02T22:01:06.916Z,13.20
2017-05-02T22:03:35.796Z,13.10
2017-05-02T22:06:04.673Z,13.20
2017-05-02T22:08:33.884Z,13.10
2017-05-02T22:11:02.771Z,13.10
2017-05-02T22:13:31.645Z,13.10
2017-05-02T22:16:00.645Z,13.10
2017-05-02T22:18:29.524Z,13.00
2017-05-02T22:20:58.401Z,13.00
2017-05-02T22:23:28.325Z,13.00
2017-05-02T22:25:57.204Z,13.00
2017-05-02T22:28:26.817Z,12.90
2017-05-02T22:30:56.560Z,12.90
2017-05-02T22:33:25.428Z,12.90
2017-05-02T22:35:54.308Z,12.80
2017-05-02T22:38:24.360Z,12.70
2017-05-02T22:40:53.229Z,12.70
2017-05-02T22:43:22.102Z,12.80
2017-05-02T22:45:52.053Z,12.70
2017-05-02T22:48:20.935Z,12.60
2017-05-02T22:50:49.814Z,12.60
2017-05-02T22:53:18.814Z,12.60
2017-05-02T22:55:47.685Z,12.60
2017-05-02T22:58:17.310Z,12.50
2017-05-02T23:00:46.421Z,12.50
2017-05-02T23:03:15.309Z,12.40
2017-05-02T23:05:44.185Z,12.40
2017-05-02T23:08:13.088Z,12.40
2017-05-02T23:10:41.964Z,12.40
2017-05-02T23:13:10.880Z,12.30
2017-05-02T23:15:39.752Z,12.30
2017-05-02T23:18:08.629Z,12.20
2017-05-02T23:20:38.289Z,12.10
2017-05-02T23:23:07.165Z,12.20
2017-05-02T23:25:36.042Z,12.00
2017-05-02T23:28:04.965Z,12.00
2017-05-02T23:30:33.845Z,11.90
2017-05-02T23:33:02.718Z,11.80
2017-05-02T23:35:31.848Z,11.80
2017-05-02T23:38:00.729Z,11.70
2017-05-02T23:40:29.613Z,11.60
2017-05-02T23:42:58.527Z,11.50
2017-05-02T23:45:27.404Z,11.50
2017-05-02T23:47:56.281Z,11.40
2017-05-02T23:50:25.185Z,11.40
2017-05-02T23:52:54.362Z,11.30
2017-05-02T23:55:23.232Z,11.20
2017-05-02T23:57:52.105Z,11.20
